createdAt,value
2023-03-16T00:00:19.809Z,3.35
2023-03-16T00:02:46.726Z,3.20
2023-03-16T00:05:14.636Z,3.38
2023-03-16T00:07:42.526Z,3.70
2023-03-16T00:10:12.642Z,3.40
2023-03-16T00:12:39.705Z,3.75
2023-03-16T00:15:07.115Z,3.67
2023-03-16T00:17:34.951Z,4.13
2023-03-16T00:20:06.681Z,3.35
2023-03-16T00:22:33.996Z,3.83
2023-03-16T00:25:00.845Z,4.47
2023-03-16T00:27:27.844Z,3.78
2023-03-16T00:29:58.128Z,5.18
2023-03-16T00:32:36.701Z,3.70
2023-03-16T00:35:08.123Z,4.70
2023-03-16T00:37:37.661Z,4.45
2023-03-16T00:40:07.738Z,4.53
2023-03-16T00:42:34.999Z,4.45
2023-03-16T00:45:02.292Z,4.47
2023-03-16T00:47:31.713Z,4.63
2023-03-16T00:49:59.824Z,4.90
2023-03-16T00:52:27.969Z,4.60
2023-03-16T00:54:56.142Z,4.07
2023-03-16T00:57:25.185Z,4.82
2023-03-16T00:59:52.753Z,5.18
2023-03-16T01:02:23.460Z,4.85
2023-03-16T01:04:51.933Z,4.72
2023-03-16T01:07:19.129Z,5.18
2023-03-16T01:09:46.647Z,4.63
2023-03-16T01:12:16.703Z,4.65
2023-03-16T01:14:45.948Z,4.40
2023-03-16T01:17:14.071Z,6.03
2023-03-16T01:19:41.959Z,4.53
2023-03-16T01:22:10.010Z,4.45
2023-03-16T01:24:37.711Z,4.85
2023-03-16T01:27:05.088Z,5.75
2023-03-16T01:29:33.146Z,3.97
2023-03-16T01:32:01.617Z,5.40
2023-03-16T01:34:28.805Z,4.57
2023-03-16T01:36:55.887Z,4.95
2023-03-16T01:39:23.258Z,5.07
2023-03-16T01:41:50.593Z,5.03
2023-03-16T01:44:24.314Z,5.18
2023-03-16T01:46:51.666Z,5.05
2023-03-16T01:49:48.281Z,5.05
2023-03-16T01:52:19.349Z,5.10
2023-03-16T01:54:54.283Z,5.53
2023-03-16T01:57:22.783Z,5.82
2023-03-16T02:00:18.664Z,6.05
2023-03-16T02:02:49.655Z,5.72
2023-03-16T02:05:24.688Z,4.90
2023-03-16T02:07:58.760Z,4.90
2023-03-16T02:10:28.661Z,5.53
2023-03-16T02:12:58.089Z,5.07
2023-03-16T02:15:25.915Z,5.30
2023-03-16T02:17:52.912Z,5.85
2023-03-16T02:20:39.546Z,4.88
2023-03-16T02:23:09.265Z,5.43
2023-03-16T02:25:59.345Z,5.15
2023-03-16T02:28:37.402Z,6.35
2023-03-16T02:31:05.946Z,5.38
2023-03-16T02:33:33.962Z,5.90
2023-03-16T02:36:00.764Z,4.43
2023-03-16T02:38:28.819Z,5.35
2023-03-16T02:41:06.894Z,5.38
2023-03-16T02:43:36.391Z,5.22
2023-03-16T02:46:05.294Z,6.00
2023-03-16T02:48:47.870Z,5.63
2023-03-16T02:51:14.869Z,6.05
2023-03-16T02:53:41.669Z,5.50
2023-03-16T02:56:08.734Z,5.18
2023-03-16T02:58:35.583Z,5.72
2023-03-16T03:01:02.546Z,5.30
2023-03-16T03:03:30.046Z,6.00
2023-03-16T03:05:56.911Z,6.00
2023-03-16T03:08:24.053Z,5.97
2023-03-16T03:10:51.516Z,4.97
2023-03-16T03:13:18.406Z,5.75
2023-03-16T03:15:45.687Z,5.72
2023-03-16T03:18:12.749Z,6.00
2023-03-16T03:20:39.604Z,5.40
2023-03-16T03:23:06.679Z,5.50
2023-03-16T03:25:35.081Z,5.75
2023-03-16T03:28:05.553Z,5.57
2023-03-16T03:30:32.605Z,5.63
2023-03-16T03:33:01.602Z,6.60
2023-03-16T03:35:28.500Z,5.75
2023-03-16T03:37:55.385Z,5.20
2023-03-16T03:40:22.218Z,5.88
2023-03-16T03:42:51.364Z,5.85
2023-03-16T03:45:18.477Z,6.18
2023-03-16T03:47:45.341Z,7.55
2023-03-16T03:50:13.978Z,6.47
2023-03-16T03:52:41.363Z,6.43
2023-03-16T03:55:08.952Z,6.38
2023-03-16T03:57:36.186Z,5.10
2023-03-16T04:00:08.135Z,7.60
2023-03-16T04:02:35.353Z,7.65
2023-03-16T04:05:02.298Z,7.78
2023-03-16T04:07:29.318Z,8.65
2023-03-16T04:09:56.081Z,7.03
2023-03-16T04:12:23.195Z,8.05
2023-03-16T04:14:50.171Z,7.22
2023-03-16T04:17:17.120Z,6.78
2023-03-16T04:19:44.107Z,7.43
2023-03-16T04:22:11.029Z,6.28
2023-03-16T04:24:37.827Z,8.02
2023-03-16T04:27:04.797Z,6.70
2023-03-16T04:29:32.081Z,6.50
2023-03-16T04:31:58.964Z,6.70
2023-03-16T04:34:25.722Z,6.63
2023-03-16T04:36:53.305Z,5.85
2023-03-16T04:39:21.069Z,6.07
2023-03-16T04:41:48.069Z,6.45
2023-03-16T04:44:14.861Z,6.45
2023-03-16T04:46:41.794Z,6.47
2023-03-16T04:49:09.802Z,6.70
2023-03-16T04:51:40.734Z,6.75
2023-03-16T04:54:08.069Z,5.55
2023-03-16T04:56:34.929Z,6.65
2023-03-16T04:59:01.822Z,6.38
2023-03-16T05:01:28.780Z,5.43
2023-03-16T05:03:56.718Z,6.47
2023-03-16T05:06:24.759Z,6.05
2023-03-16T05:08:51.731Z,5.75
2023-03-16T05:11:18.525Z,9.55
2023-03-16T05:13:45.357Z,6.00
2023-03-16T05:16:12.310Z,5.68
2023-03-16T05:18:39.234Z,6.35
2023-03-16T05:21:06.413Z,6.57
2023-03-16T05:23:33.286Z,6.13
2023-03-16T05:26:01.192Z,6.38
2023-03-16T05:28:28.216Z,5.80
2023-03-16T05:30:56.500Z,6.57
2023-03-16T05:33:23.790Z,5.63
2023-03-16T05:35:51.599Z,5.35
2023-03-16T05:38:18.436Z,6.97
2023-03-16T05:40:46.220Z,5.72
2023-03-16T05:43:13.496Z,4.47
2023-03-16T05:45:40.252Z,5.93
2023-03-16T05:48:07.161Z,6.10
2023-03-16T05:50:34.719Z,6.03
2023-03-16T05:53:01.585Z,6.22
2023-03-16T05:55:28.748Z,6.40
2023-03-16T05:57:55.712Z,6.22
2023-03-16T06:00:22.982Z,3.88
2023-03-16T06:02:53.799Z,5.95
2023-03-16T06:05:22.167Z,6.30
2023-03-16T06:07:50.288Z,5.47
2023-03-16T06:10:17.784Z,8.85
2023-03-16T06:12:45.460Z,5.70
2023-03-16T06:15:13.069Z,6.25
2023-03-16T06:17:41.455Z,6.22
2023-03-16T06:20:11.566Z,4.55
2023-03-16T06:22:40.023Z,5.85
2023-03-16T06:25:08.111Z,6.20
2023-03-16T06:27:34.940Z,5.40
2023-03-16T06:30:01.851Z,4.43
2023-03-16T06:32:28.739Z,6.00
2023-03-16T06:34:55.800Z,13.93
2023-03-16T06:37:22.756Z,5.88
2023-03-16T06:39:49.942Z,5.05
2023-03-16T06:42:16.689Z,6.57
2023-03-16T06:44:44.666Z,6.10
2023-03-16T06:47:11.991Z,4.03
2023-03-16T06:49:39.324Z,5.30
2023-03-16T06:52:06.117Z,4.57
2023-03-16T06:54:35.152Z,4.95
2023-03-16T06:57:02.063Z,4.85
2023-03-16T06:59:29.353Z,4.50
2023-03-16T07:01:56.132Z,4.28
2023-03-16T07:04:23.002Z,4.68
2023-03-16T07:06:49.833Z,4.72
2023-03-16T07:09:16.649Z,5.28
2023-03-16T07:11:43.444Z,4.15
2023-03-16T07:14:10.350Z,4.88
2023-03-16T07:16:37.482Z,4.38
2023-03-16T07:19:04.227Z,3.53
2023-03-16T07:21:39.137Z,3.85
2023-03-16T07:24:07.342Z,3.75
2023-03-16T07:26:34.312Z,3.85
2023-03-16T07:29:01.429Z,4.13
2023-03-16T07:31:28.911Z,4.20
2023-03-16T07:33:55.861Z,4.30
2023-03-16T07:36:22.697Z,4.35
2023-03-16T07:38:49.709Z,4.10
2023-03-16T07:41:16.501Z,4.00
2023-03-16T07:43:44.446Z,4.43
2023-03-16T07:46:14.850Z,3.97
2023-03-16T07:48:45.142Z,4.60
2023-03-16T07:51:13.596Z,3.15
2023-03-16T07:53:40.609Z,4.55
2023-03-16T07:56:07.859Z,4.45
2023-03-16T07:58:34.624Z,8.05
2023-03-16T08:01:01.711Z,5.15
2023-03-16T08:03:30.185Z,4.22
2023-03-16T08:05:57.373Z,5.82
2023-03-16T08:08:24.414Z,4.80
2023-03-16T08:10:53.084Z,4.78
2023-03-16T08:13:22.492Z,4.65
2023-03-16T08:15:58.804Z,5.03
2023-03-16T08:18:26.808Z,5.15
2023-03-16T08:20:54.836Z,3.78
2023-03-16T08:23:22.398Z,4.60
2023-03-16T08:25:52.792Z,4.30
2023-03-16T08:28:21.763Z,3.17
2023-03-16T08:30:51.406Z,4.13
2023-03-16T08:33:23.047Z,4.85
2023-03-16T08:35:50.760Z,3.53
2023-03-16T08:38:19.239Z,4.32
2023-03-16T08:40:48.550Z,3.97
2023-03-16T08:43:17.053Z,4.05
2023-03-16T08:45:47.074Z,5.55
2023-03-16T08:48:14.786Z,4.68
2023-03-16T08:50:43.339Z,4.43
2023-03-16T08:53:12.179Z,3.97
2023-03-16T08:55:40.466Z,3.78
2023-03-16T08:58:08.011Z,3.90
2023-03-16T09:00:35.284Z,3.85
2023-03-16T09:03:02.795Z,3.55
2023-03-16T09:05:30.616Z,3.63
2023-03-16T09:07:57.764Z,3.75
2023-03-16T09:10:25.446Z,3.95
2023-03-16T09:12:53.077Z,4.35
2023-03-16T09:15:21.183Z,3.90
2023-03-16T09:17:48.461Z,3.95
2023-03-16T09:20:22.689Z,2.92
2023-03-16T09:22:54.565Z,3.83
2023-03-16T09:25:21.493Z,2.80
2023-03-16T09:27:48.290Z,2.92
2023-03-16T09:30:16.793Z,3.75
2023-03-16T09:32:48.866Z,3.80
2023-03-16T09:35:19.675Z,4.07
2023-03-16T09:38:04.652Z,4.23
2023-03-16T09:40:36.166Z,3.92
2023-03-16T09:43:21.768Z,3.85
2023-03-16T09:46:24.363Z,3.92
2023-03-16T09:48:52.209Z,2.08
2023-03-16T09:51:28.184Z,4.55
2023-03-16T09:54:01.731Z,3.97
2023-03-16T09:56:40.710Z,4.60
2023-03-16T09:59:13.595Z,4.05
2023-03-16T10:01:53.315Z,3.47
2023-03-16T10:04:40.522Z,3.35
2023-03-16T10:07:31.248Z,3.63
2023-03-16T10:10:15.107Z,2.78
2023-03-16T10:12:45.267Z,3.42
2023-03-16T10:15:18.971Z,2.92
2023-03-16T10:17:55.727Z,2.70
2023-03-16T10:20:28.791Z,2.88
2023-03-16T10:23:16.512Z,2.80
2023-03-16T10:25:46.799Z,3.17
2023-03-16T10:28:20.175Z,3.13
2023-03-16T10:30:49.894Z,3.20
2023-03-16T10:33:26.519Z,3.08
2023-03-16T10:36:19.380Z,2.75
2023-03-16T10:38:59.665Z,2.70
2023-03-16T10:41:29.684Z,2.90
2023-03-16T10:44:07.591Z,3.03
2023-03-16T10:46:48.741Z,3.00
2023-03-16T10:49:27.844Z,3.15
2023-03-16T10:52:00.620Z,2.35
2023-03-16T10:54:41.252Z,2.88
2023-03-16T10:57:21.013Z,2.57
2023-03-16T10:59:52.990Z,2.30
2023-03-16T11:02:23.837Z,2.80
2023-03-16T11:04:51.155Z,4.53
2023-03-16T11:07:19.670Z,2.38
2023-03-16T11:09:47.933Z,2.75
2023-03-16T11:12:31.914Z,2.53
2023-03-16T11:15:07.504Z,2.72
2023-03-16T11:17:49.858Z,2.08
2023-03-16T11:20:22.402Z,2.90
2023-03-16T11:22:50.091Z,3.35
2023-03-16T11:25:17.630Z,2.90
2023-03-16T11:28:12.995Z,2.50
2023-03-16T11:30:46.802Z,2.33
2023-03-16T11:33:15.484Z,2.30
2023-03-16T11:36:09.456Z,2.97
2023-03-16T11:38:58.504Z,3.00
2023-03-16T11:41:59.163Z,2.55
2023-03-16T11:44:44.784Z,3.47
2023-03-16T11:47:29.454Z,2.22
2023-03-16T11:49:59.289Z,2.60
2023-03-16T11:52:42.927Z,2.40
2023-03-16T11:55:31.152Z,2.45
2023-03-16T11:58:10.490Z,2.53
2023-03-16T12:00:59.537Z,2.28
2023-03-16T12:03:41.375Z,3.95
2023-03-16T12:06:39.089Z,2.33
2023-03-16T12:09:21.162Z,2.20
2023-03-16T12:11:57.882Z,2.78
2023-03-16T12:14:41.195Z,2.45
2023-03-16T12:17:25.240Z,1.88
2023-03-16T12:20:00.740Z,2.08
2023-03-16T12:22:38.346Z,2.08
2023-03-16T12:25:22.191Z,2.22
2023-03-16T12:27:53.543Z,1.85
2023-03-16T12:33:16.725Z,1.60
2023-03-16T12:35:55.651Z,1.63
2023-03-16T12:38:34.311Z,1.40
2023-03-16T12:41:19.856Z,1.35
2023-03-16T12:44:13.142Z,1.30
2023-03-16T12:46:53.552Z,1.58
2023-03-16T12:49:21.256Z,1.15
2023-03-16T12:51:59.791Z,1.35
2023-03-16T12:54:27.564Z,1.50
2023-03-16T12:57:05.768Z,1.50
2023-03-16T12:59:40.262Z,1.48
2023-03-16T13:02:20.814Z,1.33
2023-03-16T13:04:54.800Z,1.10
2023-03-16T13:07:27.260Z,1.60
2023-03-16T13:09:59.321Z,2.45
2023-03-16T13:12:31.486Z,1.13
2023-03-16T13:14:59.051Z,1.33
2023-03-16T13:17:30.632Z,1.48
2023-03-16T13:20:06.793Z,1.23
2023-03-16T13:22:46.471Z,1.15
2023-03-16T13:25:15.721Z,1.40
2023-03-16T13:27:47.403Z,1.45
2023-03-16T13:30:22.563Z,0.98
2023-03-16T13:33:00.246Z,1.27
2023-03-16T13:35:29.408Z,1.33
2023-03-16T13:38:06.306Z,1.30
2023-03-16T13:40:33.672Z,1.13
2023-03-16T13:43:02.241Z,1.85
2023-03-16T13:45:33.633Z,1.50
2023-03-16T13:48:02.152Z,0.85
2023-03-16T13:50:35.379Z,1.23
2023-03-16T13:53:05.017Z,1.58
2023-03-16T13:55:35.677Z,0.75
2023-03-16T13:58:04.204Z,1.42
2023-03-16T14:11:28.819Z,1.13
2023-03-16T14:14:02.120Z,0.77
2023-03-16T14:16:32.182Z,1.17
2023-03-16T14:19:03.772Z,0.98
2023-03-16T14:21:36.143Z,1.13
2023-03-16T14:24:07.286Z,1.30
2023-03-16T14:26:42.705Z,1.55
2023-03-16T14:29:27.585Z,1.98
2023-03-16T14:31:55.762Z,1.23
2023-03-16T14:34:30.132Z,1.27
2023-03-16T14:37:11.975Z,1.15
2023-03-16T14:39:40.633Z,1.20
2023-03-16T14:42:24.126Z,1.33
2023-03-16T14:44:51.118Z,1.27
2023-03-16T14:47:30.892Z,1.00
2023-03-16T14:50:03.272Z,1.00
2023-03-16T14:52:32.711Z,1.08
2023-03-16T14:55:03.313Z,1.10
2023-03-16T14:57:30.640Z,1.42
2023-03-16T14:59:57.426Z,0.70
2023-03-16T15:02:29.776Z,1.05
2023-03-16T15:04:57.075Z,0.73
2023-03-16T15:07:28.578Z,0.80
2023-03-16T15:10:02.596Z,1.27
2023-03-16T15:12:29.530Z,0.82
2023-03-16T15:15:14.646Z,0.90
2023-03-16T15:17:43.439Z,0.73
2023-03-16T15:20:24.299Z,1.00
2023-03-16T15:22:53.103Z,0.80
2023-03-16T15:25:43.721Z,1.13
2023-03-16T15:28:17.643Z,1.30
2023-03-16T15:30:47.701Z,1.00
2023-03-16T15:33:17.369Z,0.80
2023-03-16T15:35:46.579Z,1.15
2023-03-16T15:38:19.493Z,1.10
2023-03-16T15:40:47.963Z,0.80
2023-03-16T15:43:17.938Z,1.02
2023-03-16T15:45:46.184Z,0.88
2023-03-16T15:48:14.088Z,3.03
2023-03-16T15:50:44.339Z,2.28
2023-03-16T15:53:35.302Z,1.55
2023-03-16T15:56:16.718Z,0.93
2023-03-16T15:58:46.216Z,0.90
2023-03-16T16:01:28.199Z,1.00
2023-03-16T16:03:56.153Z,2.78
2023-03-16T16:06:25.026Z,1.58
2023-03-16T16:08:54.133Z,0.93
2023-03-16T16:11:27.305Z,0.88
2023-03-16T16:13:57.540Z,0.82
2023-03-16T16:16:27.497Z,1.02
2023-03-16T16:18:54.586Z,0.90
2023-03-16T16:21:26.773Z,1.00
2023-03-16T16:23:54.425Z,1.27
2023-03-16T16:26:48.286Z,0.75
2023-03-16T16:29:23.469Z,0.60
2023-03-16T16:31:52.222Z,0.90
2023-03-16T16:34:21.885Z,0.90
2023-03-16T16:36:49.777Z,1.00
2023-03-16T16:39:17.390Z,1.30
2023-03-16T16:41:44.639Z,0.60
2023-03-16T16:44:24.473Z,0.82
2023-03-16T16:46:52.991Z,1.20
2023-03-16T16:49:28.535Z,0.60
2023-03-16T16:51:55.606Z,0.90
2023-03-16T16:54:30.664Z,0.60
2023-03-16T16:56:59.560Z,0.77
2023-03-16T16:59:31.545Z,0.70
2023-03-16T17:02:00.476Z,1.08
2023-03-16T17:04:29.221Z,0.88
2023-03-16T17:06:59.771Z,1.58
2023-03-16T17:09:27.931Z,0.90
2023-03-16T17:11:59.625Z,0.70
2023-03-16T17:14:31.361Z,1.00
2023-03-16T17:17:05.188Z,0.93
2023-03-16T17:19:32.913Z,0.63
2023-03-16T17:21:59.939Z,0.75
2023-03-16T17:24:28.845Z,0.85
2023-03-16T17:26:59.312Z,0.90
2023-03-16T17:29:31.599Z,0.70
2023-03-16T17:32:03.989Z,1.27
2023-03-16T17:35:12.424Z,0.77
2023-03-16T17:37:43.033Z,0.90
2023-03-16T17:40:17.965Z,1.02
2023-03-16T17:42:49.209Z,0.75
2023-03-16T17:45:26.867Z,1.00
2023-03-16T17:47:55.756Z,1.38
2023-03-16T17:50:29.010Z,1.77
2023-03-16T17:52:56.305Z,1.52
2023-03-16T17:55:26.492Z,1.55
2023-03-16T17:57:55.249Z,1.33
2023-03-16T18:00:32.497Z,1.20
2023-03-16T18:03:15.577Z,1.08
2023-03-16T18:05:42.855Z,1.13
2023-03-16T18:08:26.245Z,1.40
2023-03-16T18:11:02.188Z,2.22
2023-03-16T18:13:35.225Z,1.30
2023-03-16T18:16:03.353Z,1.55
2023-03-16T18:18:33.316Z,1.30
2023-03-16T18:21:00.740Z,1.13
2023-03-16T18:23:30.951Z,1.60
2023-03-16T18:26:07.406Z,2.10
2023-03-16T18:28:35.479Z,1.75
2023-03-16T18:31:03.914Z,1.63
2023-03-16T18:33:43.984Z,1.88
2023-03-16T18:36:17.709Z,1.52
2023-03-16T18:38:50.631Z,1.52
2023-03-16T18:41:27.148Z,2.08
2023-03-16T18:43:59.751Z,2.00
2023-03-16T18:46:29.918Z,2.40
2023-03-16T18:49:13.718Z,2.05
2023-03-16T18:51:43.736Z,1.92
2023-03-16T18:54:31.558Z,1.67
2023-03-16T18:56:58.962Z,1.63
2023-03-16T23:16:36.630Z,2.22
2023-03-16T23:19:24.873Z,2.35
2023-03-16T23:21:56.937Z,2.08
2023-03-16T23:24:25.311Z,1.90
2023-03-16T23:26:54.637Z,2.05
2023-03-16T23:29:22.530Z,1.88
2023-03-16T23:31:50.062Z,2.80
2023-03-16T23:34:21.432Z,2.03
2023-03-16T23:36:49.449Z,1.90
2023-03-16T23:39:16.403Z,1.80
2023-03-16T23:41:46.966Z,1.60
2023-03-16T23:44:26.887Z,2.00
2023-03-16T23:46:54.120Z,2.45
2023-03-16T23:49:24.364Z,1.90
2023-03-16T23:51:52.312Z,1.90
2023-03-16T23:54:26.130Z,2.20
2023-03-16T23:56:53.376Z,2.03
2023-03-16T23:59:21.002Z,2.40
